KLAMKAXX

Guest
Details From KLAM - LOS ALAMOS
To KAXX - ANGEL FIRE
Flight Number -
Tags decoded
Created
Modified
Stats Distance 95 nm / 176 km
Max Altitude 0 ft / 0 m
Waypoints 8
Social Downloads 2
Likes 0
Share VATSIM

Download

Looking for another format? Having issues loading an existing format? Contact us
Advertisement - Login to hide

Notes

Requested: KLAM TAS AXIPE JANUK OMLEE CEMOV WUDEN KAXX

Route

KLAM TAS AXIPE JANUK OMLEE CEMOV WUDEN KAXX

ID Type Via Altitude Latitude Longitude Leg Dist Tot Dist Heading (true) Name
O KLAM APT - 0 ft / 0 m 35.87981˚ -106.26941˚ - 0 nm - LOS ALAMOS
TAS VOR - 0 ft / 0 m 36.60878˚ -105.90633˚ 47 nm 47 nm 22° / 22° TAOS VORTAC
AXIPE FIX - 0 ft / 0 m 36.70689˚ -105.60869˚ 15 nm 62 nm 68° / 68° -
JANUK FIX - 0 ft / 0 m 36.71178˚ -105.42219˚ 8 nm 71 nm 88° / 88° -
OMLEE FIX - 0 ft / 0 m 36.71464˚ -105.30825˚ 5 nm 77 nm 88° / 88° -
CEMOV FIX - 0 ft / 0 m 36.64956˚ -105.28975˚ 4 nm 81 nm 167° / 167° -
WUDEN FIX - 0 ft / 0 m 36.60075˚ -105.27592˚ 3 nm 84 nm 167° / 167° -
O KAXX APT - 0 ft / 0 m 36.42200˚ -105.28990˚ 10 nm 94 nm 184° / 184° ANGEL FIRE

Altitude Profile

Advertisement - Login to hide

KLAM

Details ICAO KLAM (LAM)
Name LOS ALAMOS
Region United States
Timezone America/Denver (UTC-7.0)
Stats Elevation 7,171 ft / 2,186 m (AMSL)
Location 35.879808° -106.269413°
Runways 1
Magnetic Variation 8.471° E

METAR

KLAM 140755Z AUTO 22004KT 10SM SCT120 03/M14 A3000 RMK AO2 T00261145

Decode

TAF

Not found

Departure Runways

ID Width Length Bearing (true) Bearing (mag) Surface Threshold Offset Overrun Length
09 113 ft / 34 m 5,538 ft / 1,688 m 102.45° 93.98° Asphalt 0 ft / 0 m 0 ft / 0 m
27 113 ft / 34 m 5,538 ft / 1,688 m 282.46° 273.99° Asphalt 0 ft / 0 m 0 ft / 0 m

KAXX

Details ICAO KAXX
Name ANGEL FIRE
Region United States
Timezone America/Denver (UTC-7.0)
Stats Elevation 8,380 ft / 2,554 m (AMSL)
Location 36.422000° -105.289905°
Runways 1
Magnetic Variation 8.069° E

METAR

KAXX 140755Z AUTO 05006KT 10SM SCT050 SCT075 OVC090 M04/M11 A3006 RMK AO2 T10401110

Decode

TAF

Not found

Destination Runways

ID Width Length Bearing (true) Bearing (mag) Surface Threshold Offset Overrun Length
17 100 ft / 30 m 8,918 ft / 2,718 m 181.75° 173.68° Asphalt 0 ft / 0 m 0 ft / 0 m
35 100 ft / 30 m 8,918 ft / 2,718 m 1.74° 353.67° Asphalt 0 ft / 0 m 0 ft / 0 m

Popular Alternatives